WetterOnline ( https://www.wetteronline.de )

Wetter aktuell Rosport

Aktuelles Wetter: Trier/Petrisberg (273m)

6-stündlich | Neueste Meldungen
Ortszeit Temperatur Wetter
Di, 18.06. 2:00 15.5° C wolkig
Mo, 17.06. 20:00 24.8° C leicht bewölkt
Mo, 17.06. 14:00 25.7° C fast wolkenlos
Mo, 17.06. 8:00 14.1° C leicht bewölkt
Mo, 17.06. 2:00 13.0° C wolkenlos
So, 16.06. 20:00 21.2° C wolkenlos
So, 16.06. 14:00 19.8° C bedeckt
So, 16.06. 8:00 15.3° C wolkenlos
Ortszeit Temperatur Wetter
Di, 18.06. 2:10 15.5° C wolkig
Di, 18.06. 2:00 15.5° C wolkig
Di, 18.06. 1:40 15.6° C wolkig
Di, 18.06. 1:30 16.1° C wolkig
Di, 18.06. 1:20 16.1° C wolkig
Di, 18.06. 1:10 15.8° C wolkig
Di, 18.06. 1:00 16.6° C wolkig
Di, 18.06. 0:30 18.0° C wolkig
Di, 18.06. 0:00 18.7° C wolkig
Mo, 17.06. 23:30 18.4° C wolkig
Ortszeit Relative Feuchte Sichtweite
Di, 18.06. 2:00 79% 70 km
Mo, 17.06. 20:00 39% 70 km
Mo, 17.06. 14:00 38% 70 km
Mo, 17.06. 8:00 81% 65 km
Mo, 17.06. 2:00 85% 60 km
So, 16.06. 20:00 50% 45 km
So, 16.06. 14:00 56% 55 km
So, 16.06. 8:00 74% 35 km
Ortszeit Relative Feuchte Sichtweite
Di, 18.06. 2:10 78% -
Di, 18.06. 2:00 79% 70 km
Di, 18.06. 1:40 76% -
Di, 18.06. 1:30 75% 70 km
Di, 18.06. 1:20 75% -
Di, 18.06. 1:10 75% -
Di, 18.06. 1:00 73% 70 km
Di, 18.06. 0:30 67% 70 km
Di, 18.06. 0:00 63% 70 km
Mo, 17.06. 23:30 64% 70 km
Ortszeit Niederschlagsmenge Niederschlagsart
Di, 18.06. 2:00 0.0 l/m2 in 6 Std. -
Mo, 17.06. 20:00 0.0 l/m2 in 12 Std. -
Mo, 17.06. 14:00 0.0 l/m2 in 6 Std. -
Mo, 17.06. 8:00 0.0 l/m2 in 12 Std. -
Mo, 17.06. 2:00 0.0 l/m2 in 6 Std. -
So, 16.06. 20:00 0.0 l/m2 in 12 Std. -
So, 16.06. 14:00 0.0 l/m2 in 6 Std. -
So, 16.06. 8:00 0.0 l/m2 in 12 Std. -
Ortszeit Niederschlagsmenge Niederschlagsart
Di, 18.06. 2:10 keine Meldung -
Di, 18.06. 2:00 0.0 l/m2 in 1 Std. -
Di, 18.06. 1:40 keine Meldung -
Di, 18.06. 1:30 0.0 l/m2 in 1 Std. -
Di, 18.06. 1:20 keine Meldung -
Di, 18.06. 1:10 keine Meldung -
Di, 18.06. 1:00 0.0 l/m2 in 1 Std. -
Di, 18.06. 0:30 0.0 l/m2 in 1 Std. -
Di, 18.06. 0:00 0.0 l/m2 in 1 Std. -
Mo, 17.06. 23:30 0.0 l/m2 in 1 Std. -
Ortszeit Stärke Spitze Richtung
km/h Bft. km/h Grad Sektor
Di, 18.06. 2:00 9 2 19 20° N
Mo, 17.06. 20:00 11 2 28 40° NO
Mo, 17.06. 14:00 7 2 22 120° SO
Mo, 17.06. 8:00 7 2 14 20° N
Mo, 17.06. 2:00 7 2 14 70° O
So, 16.06. 20:00 7 2 31 230° SW
So, 16.06. 14:00 18 3 32 210° SW
So, 16.06. 8:00 11 2 18 230° SW
Ortszeit Stärke Spitze Richtung
km/h Bft. km/h Grad Sektor
Di, 18.06. 2:10 7 2 - 20° N
Di, 18.06. 2:00 9 2 13 20° N
Di, 18.06. 1:40 7 2 - 20° N
Di, 18.06. 1:30 7 2 11 30° NO
Di, 18.06. 1:20 7 2 - 30° NO
Di, 18.06. 1:10 6 1 - 30° NO
Di, 18.06. 1:00 6 1 13 20° N
Di, 18.06. 0:30 9 2 13 360° N
Di, 18.06. 0:00 7 2 11 360° N
Mo, 17.06. 23:30 4 1 7 10° N
Ortszeit Untergrenze Bedeckung Gattung
total tief tief mittel hoch
Di, 18.06. 2:00 8400 m 8/8 0/8 - - -
Mo, 17.06. 20:00 1800 m 1/8 4/8 - - -
Mo, 17.06. 14:00 30 m 1/8 1/8 - - -
Mo, 17.06. 8:00 9000 m 3/8 0/8 - - -
Mo, 17.06. 2:00 - 0/8 0/8 - - -
So, 16.06. 20:00 - 0/8 0/8 - - -
So, 16.06. 14:00 1170 m 8/8 8/8 - - -
So, 16.06. 8:00 - 0/8 0/8 - - -
Ortszeit Bedeckungsgrad in Achtel und Wolkenuntergrenze
Di, 18.06. 2:10 7(8100m) 8(9000m) 8(10500m)
Di, 18.06. 2:00 8(8400m) 8(10500m)
Di, 18.06. 1:40 7(8400m) 8(9000m)
Di, 18.06. 1:30 7(8400m) 8(9000m) 8(10500m)
Di, 18.06. 1:20 7(8400m) 8(9000m) 8(10500m)
Di, 18.06. 1:10 7(8100m) 8(9000m) 8(10500m)
Di, 18.06. 1:00 7(8100m) 8(9000m) 8(10500m)
Di, 18.06. 0:30 8(8400m)
Di, 18.06. 0:00 8(8400m)
Mo, 17.06. 23:30 7(8700m) 8(9000m)
Ortszeit Luftdruck NN (hPa) Tendenz (hPa in 3 Std.)
Di, 18.06. 2:00 1017 - 0,3
Mo, 17.06. 20:00 1016 - 1,0
Mo, 17.06. 14:00 1018 - 1,2
Mo, 17.06. 8:00 1022 - 0,2
Mo, 17.06. 2:00 1022 0,0
So, 16.06. 20:00 1021 - 0,3
So, 16.06. 14:00 1021 + 0,4
So, 16.06. 8:00 1021 + 0,9
Ortszeit Luftdruck NN (hPa) Tendenz (hPa in 3 Std.)
Di, 18.06. 2:10 1017 keine Meldung
Di, 18.06. 2:00 1017 - 0,3
Di, 18.06. 1:40 1017 keine Meldung
Di, 18.06. 1:30 1017 - 0,1
Di, 18.06. 1:20 1017 keine Meldung
Di, 18.06. 1:10 1017 keine Meldung
Di, 18.06. 1:00 1017 + 0,1
Di, 18.06. 0:30 1017 + 0,3
Di, 18.06. 0:00 1017 + 0,2
Mo, 17.06. 23:30 1017 0,0
Ortszeit Schneehöhe (cm)
Di, 18.06. 2:00 -
Mo, 17.06. 20:00 -
Mo, 17.06. 14:00 -
Mo, 17.06. 8:00 -
Mo, 17.06. 2:00 -
So, 16.06. 20:00 -
So, 16.06. 14:00 -
So, 16.06. 8:00 -
Ortszeit Schneehöhe (cm)
Di, 18.06. 2:10 -
Di, 18.06. 2:00 -
Di, 18.06. 1:40 -
Di, 18.06. 1:30 -
Di, 18.06. 1:20 -
Di, 18.06. 1:10 -
Di, 18.06. 1:00 -
Di, 18.06. 0:30 -
Di, 18.06. 0:00 -
Mo, 17.06. 23:30 -
Link zu dieser Seite / Seite empfehlen

Das Wetter in ...